sensor_id;sensor_type;location;lat;lon;timestamp;P1;durP1;ratioP1;P2;durP2;ratioP2
31382;SDS011;18014;49.228;11.102;2022-07-10T00:00:27;4.53;;;4.13;;
31382;SDS011;18014;49.228;11.102;2022-07-10T00:02:30;4.40;;;4.00;;
31382;SDS011;18014;49.228;11.102;2022-07-10T00:04:31;4.60;;;4.20;;
31382;SDS011;18014;49.228;11.102;2022-07-10T00:06:32;4.82;;;4.20;;
31382;SDS011;18014;49.228;11.102;2022-07-10T00:08:33;4.20;;;3.80;;
31382;SDS011;18014;49.228;11.102;2022-07-10T00:10:34;3.75;;;3.45;;
31382;SDS011;18014;49.228;11.102;2022-07-10T00:12:36;4.07;;;3.70;;
31382;SDS011;18014;49.228;11.102;2022-07-10T00:14:37;4.70;;;4.30;;
31382;SDS011;18014;49.228;11.102;2022-07-10T00:16:38;4.25;;;3.83;;
31382;SDS011;18014;49.228;11.102;2022-07-10T00:18:39;4.05;;;3.65;;
31382;SDS011;18014;49.228;11.102;2022-07-10T00:20:40;4.18;;;3.78;;
31382;SDS011;18014;49.228;11.102;2022-07-10T00:22:41;4.10;;;3.70;;
31382;SDS011;18014;49.228;11.102;2022-07-10T00:24:43;4.65;;;4.25;;
31382;SDS011;18014;49.228;11.102;2022-07-10T00:26:44;3.88;;;3.58;;
31382;SDS011;18014;49.228;11.102;2022-07-10T00:28:45;4.53;;;4.13;;
31382;SDS011;18014;49.228;11.102;2022-07-10T00:30:46;4.07;;;3.67;;
31382;SDS011;18014;49.228;11.102;2022-07-10T00:32:47;4.45;;;4.00;;
31382;SDS011;18014;49.228;11.102;2022-07-10T00:34:48;3.92;;;3.60;;
31382;SDS011;18014;49.228;11.102;2022-07-10T00:36:49;3.30;;;3.00;;
31382;SDS011;18014;49.228;11.102;2022-07-10T00:38:50;4.03;;;3.67;;
31382;SDS011;18014;49.228;11.102;2022-07-10T00:40:51;4.20;;;3.80;;
31382;SDS011;18014;49.228;11.102;2022-07-10T00:42:52;3.80;;;3.47;;
31382;SDS011;18014;49.228;11.102;2022-07-10T00:44:53;4.28;;;3.92;;
31382;SDS011;18014;49.228;11.102;2022-07-10T00:46:54;3.45;;;3.15;;
31382;SDS011;18014;49.228;11.102;2022-07-10T00:48:55;3.95;;;3.50;;
31382;SDS011;18014;49.228;11.102;2022-07-10T00:50:56;3.95;;;3.65;;
31382;SDS011;18014;49.228;11.102;2022-07-10T00:52:57;4.00;;;3.70;;
31382;SDS011;18014;49.228;11.102;2022-07-10T00:54:58;3.55;;;3.25;;
31382;SDS011;18014;49.228;11.102;2022-07-10T00:56:59;3.92;;;3.53;;
31382;SDS011;18014;49.228;11.102;2022-07-10T00:59:02;3.35;;;3.05;;
31382;SDS011;18014;49.228;11.102;2022-07-10T01:01:03;4.50;;;4.10;;
31382;SDS011;18014;49.228;11.102;2022-07-10T01:03:05;4.22;;;3.50;;
31382;SDS011;18014;49.228;11.102;2022-07-10T01:05:06;3.85;;;3.55;;
31382;SDS011;18014;49.228;11.102;2022-07-10T01:07:07;3.70;;;3.40;;
31382;SDS011;18014;49.228;11.102;2022-07-10T01:09:08;4.18;;;3.78;;
31382;SDS011;18014;49.228;11.102;2022-07-10T01:11:09;3.75;;;3.45;;
31382;SDS011;18014;49.228;11.102;2022-07-10T01:13:11;3.85;;;3.55;;
31382;SDS011;18014;49.228;11.102;2022-07-10T01:15:12;4.25;;;3.85;;
31382;SDS011;18014;49.228;11.102;2022-07-10T01:17:13;4.47;;;4.07;;
31382;SDS011;18014;49.228;11.102;2022-07-10T01:19:15;4.80;;;3.70;;
31382;SDS011;18014;49.228;11.102;2022-07-10T01:21:25;5.20;;;3.95;;
31382;SDS011;18014;49.228;11.102;2022-07-10T01:23:27;3.72;;;3.40;;
31382;SDS011;18014;49.228;11.102;2022-07-10T01:25:28;3.85;;;3.50;;
31382;SDS011;18014;49.228;11.102;2022-07-10T01:27:29;4.35;;;3.95;;
31382;SDS011;18014;49.228;11.102;2022-07-10T01:29:30;4.00;;;3.60;;
31382;SDS011;18014;49.228;11.102;2022-07-10T01:31:32;4.10;;;3.70;;
31382;SDS011;18014;49.228;11.102;2022-07-10T01:33:33;4.00;;;3.70;;
31382;SDS011;18014;49.228;11.102;2022-07-10T01:35:34;3.95;;;3.65;;
31382;SDS011;18014;49.228;11.102;2022-07-10T01:37:35;3.92;;;3.55;;
31382;SDS011;18014;49.228;11.102;2022-07-10T01:39:36;4.50;;;3.80;;
31382;SDS011;18014;49.228;11.102;2022-07-10T01:41:37;4.50;;;4.10;;
31382;SDS011;18014;49.228;11.102;2022-07-10T01:43:38;4.38;;;3.97;;
31382;SDS011;18014;49.228;11.102;2022-07-10T01:45:42;4.13;;;3.72;;
31382;SDS011;18014;49.228;11.102;2022-07-10T01:47:44;3.90;;;3.60;;
31382;SDS011;18014;49.228;11.102;2022-07-10T01:49:45;3.95;;;3.50;;
31382;SDS011;18014;49.228;11.102;2022-07-10T01:51:46;4.15;;;3.75;;
31382;SDS011;18014;49.228;11.102;2022-07-10T01:53:47;5.00;;;3.45;;
31382;SDS011;18014;49.228;11.102;2022-07-10T01:55:48;4.45;;;3.67;;
31382;SDS011;18014;49.228;11.102;2022-07-10T01:57:49;4.28;;;3.65;;
31382;SDS011;18014;49.228;11.102;2022-07-10T01:59:50;4.13;;;3.60;;
31382;SDS011;18014;49.228;11.102;2022-07-10T02:01:51;3.95;;;3.60;;
31382;SDS011;18014;49.228;11.102;2022-07-10T02:03:52;3.95;;;3.63;;
31382;SDS011;18014;49.228;11.102;2022-07-10T02:06:11;4.05;;;3.65;;
31382;SDS011;18014;49.228;11.102;2022-07-10T02:08:12;4.55;;;4.15;;
31382;SDS011;18014;49.228;11.102;2022-07-10T02:10:13;4.18;;;3.78;;
31382;SDS011;18014;49.228;11.102;2022-07-10T02:12:14;3.97;;;3.67;;
31382;SDS011;18014;49.228;11.102;2022-07-10T02:14:16;4.30;;;3.90;;
31382;SDS011;18014;49.228;11.102;2022-07-10T02:16:17;4.35;;;3.85;;
31382;SDS011;18014;49.228;11.102;2022-07-10T02:18:18;5.70;;;4.45;;
31382;SDS011;18014;49.228;11.102;2022-07-10T02:20:19;4.03;;;3.72;;
31382;SDS011;18014;49.228;11.102;2022-07-10T02:22:20;3.85;;;3.53;;
31382;SDS011;18014;49.228;11.102;2022-07-10T02:24:21;4.30;;;3.90;;
31382;SDS011;18014;49.228;11.102;2022-07-10T02:26:22;4.25;;;3.85;;
31382;SDS011;18014;49.228;11.102;2022-07-10T02:28:23;4.65;;;3.67;;
31382;SDS011;18014;49.228;11.102;2022-07-10T02:31:01;4.10;;;3.80;;
31382;SDS011;18014;49.228;11.102;2022-07-10T02:33:02;4.00;;;3.67;;
31382;SDS011;18014;49.228;11.102;2022-07-10T02:35:04;3.95;;;3.65;;
31382;SDS011;18014;49.228;11.102;2022-07-10T02:37:05;4.70;;;4.30;;
31382;SDS011;18014;49.228;11.102;2022-07-10T02:39:06;4.35;;;3.95;;
31382;SDS011;18014;49.228;11.102;2022-07-10T02:41:07;4.30;;;3.67;;
31382;SDS011;18014;49.228;11.102;2022-07-10T02:43:08;4.32;;;3.92;;
31382;SDS011;18014;49.228;11.102;2022-07-10T02:45:09;4.85;;;4.45;;
31382;SDS011;18014;49.228;11.102;2022-07-10T02:47:11;4.25;;;3.85;;
31382;SDS011;18014;49.228;11.102;2022-07-10T02:49:11;4.20;;;3.80;;
31382;SDS011;18014;49.228;11.102;2022-07-10T02:51:12;4.22;;;3.92;;
31382;SDS011;18014;49.228;11.102;2022-07-10T02:53:14;3.95;;;3.65;;
31382;SDS011;18014;49.228;11.102;2022-07-10T02:55:15;4.30;;;3.90;;
31382;SDS011;18014;49.228;11.102;2022-07-10T02:57:16;4.18;;;3.78;;
31382;SDS011;18014;49.228;11.102;2022-07-10T02:59:17;4.20;;;3.80;;
31382;SDS011;18014;49.228;11.102;2022-07-10T03:01:18;4.55;;;4.15;;
31382;SDS011;18014;49.228;11.102;2022-07-10T03:03:19;4.90;;;4.50;;
31382;SDS011;18014;49.228;11.102;2022-07-10T03:05:21;4.63;;;4.22;;
31382;SDS011;18014;49.228;11.102;2022-07-10T03:07:22;4.40;;;4.07;;
31382;SDS011;18014;49.228;11.102;2022-07-10T03:09:23;4.07;;;3.78;;
31382;SDS011;18014;49.228;11.102;2022-07-10T03:11:25;4.35;;;4.00;;
31382;SDS011;18014;49.228;11.102;2022-07-10T03:13:26;5.10;;;4.70;;
31382;SDS011;18014;49.228;11.102;2022-07-10T03:15:27;4.65;;;4.25;;
31382;SDS011;18014;49.228;11.102;2022-07-10T03:17:28;4.50;;;4.10;;
31382;SDS011;18014;49.228;11.102;2022-07-10T03:19:29;4.80;;;4.30;;
31382;SDS011;18014;49.228;11.102;2022-07-10T03:21:30;4.47;;;4.07;;
31382;SDS011;18014;49.228;11.102;2022-07-10T03:23:31;4.68;;;4.10;;
31382;SDS011;18014;49.228;11.102;2022-07-10T03:25:32;4.57;;;4.20;;
31382;SDS011;18014;49.228;11.102;2022-07-10T03:27:33;4.90;;;4.50;;
31382;SDS011;18014;49.228;11.102;2022-07-10T03:29:34;5.10;;;4.60;;
31382;SDS011;18014;49.228;11.102;2022-07-10T03:31:34;4.72;;;4.32;;
31382;SDS011;18014;49.228;11.102;2022-07-10T03:33:35;4.65;;;4.25;;
31382;SDS011;18014;49.228;11.102;2022-07-10T03:35:36;4.75;;;4.35;;
31382;SDS011;18014;49.228;11.102;2022-07-10T03:37:37;5.15;;;4.75;;
31382;SDS011;18014;49.228;11.102;2022-07-10T03:39:38;4.43;;;4.03;;
31382;SDS011;18014;49.228;11.102;2022-07-10T03:41:39;4.78;;;4.38;;
31382;SDS011;18014;49.228;11.102;2022-07-10T03:43:40;4.97;;;4.57;;
31382;SDS011;18014;49.228;11.102;2022-07-10T03:45:41;4.70;;;4.30;;
31382;SDS011;18014;49.228;11.102;2022-07-10T03:47:42;4.60;;;4.20;;
31382;SDS011;18014;49.228;11.102;2022-07-10T03:49:43;4.85;;;4.28;;
31382;SDS011;18014;49.228;11.102;2022-07-10T03:51:44;4.57;;;4.20;;
31382;SDS011;18014;49.228;11.102;2022-07-10T03:53:45;4.55;;;4.15;;
31382;SDS011;18014;49.228;11.102;2022-07-10T03:55:46;4.80;;;4.40;;
31382;SDS011;18014;49.228;11.102;2022-07-10T03:57:47;4.40;;;4.10;;
31382;SDS011;18014;49.228;11.102;2022-07-10T03:59:54;4.70;;;4.30;;
31382;SDS011;18014;49.228;11.102;2022-07-10T04:01:55;5.18;;;4.70;;
31382;SDS011;18014;49.228;11.102;2022-07-10T04:03:56;5.05;;;4.55;;
31382;SDS011;18014;49.228;11.102;2022-07-10T04:05:57;4.80;;;4.40;;
31382;SDS011;18014;49.228;11.102;2022-07-10T04:07:58;5.00;;;4.60;;
31382;SDS011;18014;49.228;11.102;2022-07-10T04:10:00;4.90;;;4.53;;
31382;SDS011;18014;49.228;11.102;2022-07-10T04:12:02;4.50;;;4.13;;
31382;SDS011;18014;49.228;11.102;2022-07-10T04:14:03;5.00;;;4.60;;
31382;SDS011;18014;49.228;11.102;2022-07-10T04:16:04;5.28;;;4.80;;
31382;SDS011;18014;49.228;11.102;2022-07-10T04:18:05;5.20;;;4.70;;
31382;SDS011;18014;49.228;11.102;2022-07-10T04:20:06;5.35;;;4.85;;
31382;SDS011;18014;49.228;11.102;2022-07-10T04:22:08;4.72;;;4.35;;
31382;SDS011;18014;49.228;11.102;2022-07-10T04:24:09;4.38;;;4.07;;
31382;SDS011;18014;49.228;11.102;2022-07-10T04:26:10;4.72;;;4.32;;
31382;SDS011;18014;49.228;11.102;2022-07-10T04:28:10;4.80;;;4.40;;
31382;SDS011;18014;49.228;11.102;2022-07-10T04:30:11;5.35;;;4.93;;
31382;SDS011;18014;49.228;11.102;2022-07-10T04:32:13;4.90;;;4.50;;
31382;SDS011;18014;49.228;11.102;2022-07-10T04:34:15;4.85;;;4.45;;
31382;SDS011;18014;49.228;11.102;2022-07-10T04:36:16;6.03;;;5.28;;
31382;SDS011;18014;49.228;11.102;2022-07-10T04:38:17;4.80;;;4.32;;
31382;SDS011;18014;49.228;11.102;2022-07-10T04:40:18;4.97;;;4.57;;
31382;SDS011;18014;49.228;11.102;2022-07-10T04:42:18;5.00;;;4.50;;
31382;SDS011;18014;49.228;11.102;2022-07-10T04:44:19;5.47;;;4.93;;
31382;SDS011;18014;49.228;11.102;2022-07-10T04:46:20;5.05;;;4.63;;
31382;SDS011;18014;49.228;11.102;2022-07-10T04:48:21;5.38;;;4.85;;
31382;SDS011;18014;49.228;11.102;2022-07-10T04:50:22;5.03;;;4.50;;
31382;SDS011;18014;49.228;11.102;2022-07-10T04:52:23;4.72;;;4.32;;
31382;SDS011;18014;49.228;11.102;2022-07-10T04:54:24;5.28;;;4.75;;
31382;SDS011;18014;49.228;11.102;2022-07-10T04:56:26;5.18;;;4.68;;
31382;SDS011;18014;49.228;11.102;2022-07-10T04:58:27;4.90;;;4.50;;
31382;SDS011;18014;49.228;11.102;2022-07-10T05:00:28;4.67;;;4.27;;
31382;SDS011;18014;49.228;11.102;2022-07-10T05:02:29;4.53;;;4.18;;
31382;SDS011;18014;49.228;11.102;2022-07-10T05:04:30;4.43;;;4.03;;
31382;SDS011;18014;49.228;11.102;2022-07-10T05:06:31;5.22;;;4.72;;
31382;SDS011;18014;49.228;11.102;2022-07-10T05:08:32;4.57;;;4.18;;
31382;SDS011;18014;49.228;11.102;2022-07-10T05:10:33;4.72;;;4.32;;
31382;SDS011;18014;49.228;11.102;2022-07-10T05:12:34;4.32;;;4.00;;
31382;SDS011;18014;49.228;11.102;2022-07-10T05:14:35;4.55;;;4.20;;
31382;SDS011;18014;49.228;11.102;2022-07-10T05:16:36;4.88;;;4.47;;
31382;SDS011;18014;49.228;11.102;2022-07-10T05:18:37;4.80;;;4.40;;
31382;SDS011;18014;49.228;11.102;2022-07-10T05:20:39;4.55;;;4.15;;
31382;SDS011;18014;49.228;11.102;2022-07-10T05:22:43;4.70;;;4.30;;
31382;SDS011;18014;49.228;11.102;2022-07-10T05:24:44;5.28;;;4.88;;
31382;SDS011;18014;49.228;11.102;2022-07-10T05:26:45;4.93;;;4.43;;
31382;SDS011;18014;49.228;11.102;2022-07-10T05:28:46;5.07;;;4.40;;
31382;SDS011;18014;49.228;11.102;2022-07-10T05:30:47;4.90;;;4.50;;
31382;SDS011;18014;49.228;11.102;2022-07-10T05:32:48;4.37;;;3.97;;
31382;SDS011;18014;49.228;11.102;2022-07-10T05:34:49;3.95;;;3.65;;
31382;SDS011;18014;49.228;11.102;2022-07-10T05:36:51;4.38;;;3.92;;
31382;SDS011;18014;49.228;11.102;2022-07-10T05:38:52;4.82;;;4.43;;
31382;SDS011;18014;49.228;11.102;2022-07-10T05:40:53;4.60;;;4.20;;
31382;SDS011;18014;49.228;11.102;2022-07-10T05:42:54;4.43;;;4.03;;
31382;SDS011;18014;49.228;11.102;2022-07-10T05:44:55;4.13;;;3.70;;
31382;SDS011;18014;49.228;11.102;2022-07-10T05:46:56;5.50;;;4.07;;
31382;SDS011;18014;49.228;11.102;2022-07-10T05:48:57;4.07;;;3.75;;
31382;SDS011;18014;49.228;11.102;2022-07-10T05:50:58;4.28;;;3.88;;
31382;SDS011;18014;49.228;11.102;2022-07-10T05:52:59;4.57;;;4.18;;
31382;SDS011;18014;49.228;11.102;2022-07-10T05:55:00;4.25;;;3.83;;
31382;SDS011;18014;49.228;11.102;2022-07-10T05:57:01;4.65;;;4.25;;
31382;SDS011;18014;49.228;11.102;2022-07-10T05:59:02;3.85;;;3.55;;
31382;SDS011;18014;49.228;11.102;2022-07-10T06:01:03;4.20;;;3.80;;
31382;SDS011;18014;49.228;11.102;2022-07-10T06:03:04;3.83;;;3.53;;
31382;SDS011;18014;49.228;11.102;2022-07-10T06:05:05;4.10;;;3.70;;
31382;SDS011;18014;49.228;11.102;2022-07-10T06:07:06;4.53;;;4.13;;
31382;SDS011;18014;49.228;11.102;2022-07-10T06:09:07;4.22;;;3.90;;
31382;SDS011;18014;49.228;11.102;2022-07-10T06:11:08;4.60;;;4.20;;
31382;SDS011;18014;49.228;11.102;2022-07-10T06:13:10;4.25;;;3.90;;
31382;SDS011;18014;49.228;11.102;2022-07-10T06:15:11;3.95;;;3.55;;
31382;SDS011;18014;49.228;11.102;2022-07-10T06:17:12;4.10;;;3.75;;
31382;SDS011;18014;49.228;11.102;2022-07-10T06:19:13;4.18;;;3.80;;
31382;SDS011;18014;49.228;11.102;2022-07-10T06:21:17;4.10;;;3.60;;
31382;SDS011;18014;49.228;11.102;2022-07-10T06:23:21;3.90;;;3.50;;
31382;SDS011;18014;49.228;11.102;2022-07-10T06:25:22;3.88;;;3.58;;
31382;SDS011;18014;49.228;11.102;2022-07-10T06:27:23;3.85;;;3.47;;
31382;SDS011;18014;49.228;11.102;2022-07-10T06:29:25;3.85;;;3.53;;
31382;SDS011;18014;49.228;11.102;2022-07-10T06:31:25;3.38;;;3.17;;
31382;SDS011;18014;49.228;11.102;2022-07-10T06:33:26;3.55;;;3.25;;
31382;SDS011;18014;49.228;11.102;2022-07-10T06:35:28;3.40;;;3.10;;
31382;SDS011;18014;49.228;11.102;2022-07-10T06:37:29;3.80;;;3.50;;
31382;SDS011;18014;49.228;11.102;2022-07-10T06:39:34;3.40;;;3.10;;
31382;SDS011;18014;49.228;11.102;2022-07-10T06:41:35;3.55;;;3.25;;
31382;SDS011;18014;49.228;11.102;2022-07-10T06:43:36;3.63;;;3.33;;
31382;SDS011;18014;49.228;11.102;2022-07-10T06:45:38;4.97;;;4.03;;
31382;SDS011;18014;49.228;11.102;2022-07-10T06:47:39;3.40;;;3.10;;
31382;SDS011;18014;49.228;11.102;2022-07-10T06:49:56;3.47;;;3.17;;
31382;SDS011;18014;49.228;11.102;2022-07-10T06:51:57;3.67;;;3.30;;
31382;SDS011;18014;49.228;11.102;2022-07-10T06:53:58;3.42;;;3.13;;
31382;SDS011;18014;49.228;11.102;2022-07-10T06:55:59;3.63;;;3.33;;
31382;SDS011;18014;49.228;11.102;2022-07-10T06:58:00;3.38;;;3.08;;
31382;SDS011;18014;49.228;11.102;2022-07-10T07:00:02;3.55;;;3.25;;
31382;SDS011;18014;49.228;11.102;2022-07-10T07:02:03;3.10;;;2.90;;
31382;SDS011;18014;49.228;11.102;2022-07-10T07:04:04;3.35;;;3.05;;
31382;SDS011;18014;49.228;11.102;2022-07-10T07:06:05;4.00;;;3.20;;
31382;SDS011;18014;49.228;11.102;2022-07-10T07:08:06;3.03;;;2.60;;
31382;SDS011;18014;49.228;11.102;2022-07-10T07:10:08;2.85;;;2.65;;
31382;SDS011;18014;49.228;11.102;2022-07-10T07:12:09;2.92;;;2.72;;
31382;SDS011;18014;49.228;11.102;2022-07-10T07:14:10;3.35;;;3.05;;
31382;SDS011;18014;49.228;11.102;2022-07-10T07:16:12;3.15;;;2.92;;
31382;SDS011;18014;49.228;11.102;2022-07-10T07:18:18;3.03;;;2.72;;
31382;SDS011;18014;49.228;11.102;2022-07-10T07:20:21;2.92;;;2.72;;
31382;SDS011;18014;49.228;11.102;2022-07-10T07:22:44;2.95;;;2.75;;
31382;SDS011;18014;49.228;11.102;2022-07-10T07:25:04;2.88;;;2.67;;
31382;SDS011;18014;49.228;11.102;2022-07-10T07:27:06;2.77;;;2.47;;
31382;SDS011;18014;49.228;11.102;2022-07-10T07:29:07;2.90;;;2.70;;
31382;SDS011;18014;49.228;11.102;2022-07-10T07:31:08;2.70;;;2.50;;
31382;SDS011;18014;49.228;11.102;2022-07-10T07:33:08;2.92;;;2.53;;
31382;SDS011;18014;49.228;11.102;2022-07-10T07:35:10;2.70;;;2.50;;
31382;SDS011;18014;49.228;11.102;2022-07-10T07:37:12;2.60;;;2.40;;
31382;SDS011;18014;49.228;11.102;2022-07-10T07:39:13;2.67;;;2.47;;
31382;SDS011;18014;49.228;11.102;2022-07-10T07:41:14;2.75;;;2.38;;
31382;SDS011;18014;49.228;11.102;2022-07-10T07:43:15;2.60;;;2.40;;
31382;SDS011;18014;49.228;11.102;2022-07-10T07:45:16;3.10;;;2.80;;
31382;SDS011;18014;49.228;11.102;2022-07-10T07:47:17;2.40;;;2.20;;
31382;SDS011;18014;49.228;11.102;2022-07-10T07:49:18;2.80;;;2.58;;
31382;SDS011;18014;49.228;11.102;2022-07-10T07:51:19;2.40;;;2.20;;
31382;SDS011;18014;49.228;11.102;2022-07-10T07:53:20;2.30;;;2.10;;
31382;SDS011;18014;49.228;11.102;2022-07-10T07:55:21;2.33;;;2.13;;
31382;SDS011;18014;49.228;11.102;2022-07-10T07:57:22;2.57;;;2.37;;
31382;SDS011;18014;49.228;11.102;2022-07-10T07:59:23;2.78;;;2.58;;
31382;SDS011;18014;49.228;11.102;2022-07-10T08:01:24;2.22;;;2.13;;
31382;SDS011;18014;49.228;11.102;2022-07-10T08:03:25;2.70;;;2.50;;
31382;SDS011;18014;49.228;11.102;2022-07-10T08:05:26;1.95;;;1.85;;
31382;SDS011;18014;49.228;11.102;2022-07-10T08:07:38;2.17;;;1.98;;
31382;SDS011;18014;49.228;11.102;2022-07-10T08:09:41;2.35;;;2.15;;
31382;SDS011;18014;49.228;11.102;2022-07-10T08:11:44;2.35;;;2.15;;
31382;SDS011;18014;49.228;11.102;2022-07-10T08:13:46;2.35;;;1.67;;
31382;SDS011;18014;49.228;11.102;2022-07-10T08:15:47;2.25;;;2.05;;
31382;SDS011;18014;49.228;11.102;2022-07-10T08:17:48;2.35;;;2.15;;
31382;SDS011;18014;49.228;11.102;2022-07-10T08:21:52;2.38;;;1.98;;
31382;SDS011;18014;49.228;11.102;2022-07-10T08:23:53;2.30;;;2.10;;
31382;SDS011;18014;49.228;11.102;2022-07-10T08:25:54;2.53;;;2.25;;
31382;SDS011;18014;49.228;11.102;2022-07-10T08:27:59;2.47;;;2.25;;
31382;SDS011;18014;49.228;11.102;2022-07-10T08:30:01;2.25;;;2.05;;
31382;SDS011;18014;49.228;11.102;2022-07-10T08:32:02;2.22;;;2.03;;
31382;SDS011;18014;49.228;11.102;2022-07-10T08:34:05;2.20;;;2.00;;
31382;SDS011;18014;49.228;11.102;2022-07-10T08:36:06;2.35;;;1.73;;
31382;SDS011;18014;49.228;11.102;2022-07-10T08:38:07;2.15;;;2.00;;
31382;SDS011;18014;49.228;11.102;2022-07-10T08:40:09;1.88;;;1.73;;
31382;SDS011;18014;49.228;11.102;2022-07-10T08:42:15;1.77;;;1.67;;
31382;SDS011;18014;49.228;11.102;2022-07-10T08:44:17;2.05;;;1.90;;
31382;SDS011;18014;49.228;11.102;2022-07-10T08:46:18;1.70;;;1.50;;
31382;SDS011;18014;49.228;11.102;2022-07-10T08:48:22;1.83;;;1.65;;
31382;SDS011;18014;49.228;11.102;2022-07-10T08:50:24;2.17;;;1.70;;
31382;SDS011;18014;49.228;11.102;2022-07-10T08:54:32;1.70;;;1.60;;
31382;SDS011;18014;49.228;11.102;2022-07-10T08:56:34;2.03;;;1.65;;
31382;SDS011;18014;49.228;11.102;2022-07-10T08:58:36;2.08;;;1.67;;
31382;SDS011;18014;49.228;11.102;2022-07-10T09:00:38;2.10;;;1.80;;
31382;SDS011;18014;49.228;11.102;2022-07-10T09:02:40;2.03;;;1.60;;
31382;SDS011;18014;49.228;11.102;2022-07-10T09:04:41;1.85;;;1.75;;
31382;SDS011;18014;49.228;11.102;2022-07-10T09:06:42;2.10;;;1.70;;
31382;SDS011;18014;49.228;11.102;2022-07-10T09:09:00;2.08;;;1.50;;
31382;SDS011;18014;49.228;11.102;2022-07-10T09:11:13;2.25;;;2.05;;
31382;SDS011;18014;49.228;11.102;2022-07-10T09:13:15;2.10;;;1.90;;
31382;SDS011;18014;49.228;11.102;2022-07-10T09:15:17;1.88;;;1.77;;
31382;SDS011;18014;49.228;11.102;2022-07-10T09:17:19;2.10;;;1.90;;
31382;SDS011;18014;49.228;11.102;2022-07-10T09:19:23;1.67;;;1.42;;
31382;SDS011;18014;49.228;11.102;2022-07-10T09:21:25;1.63;;;1.52;;
31382;SDS011;18014;49.228;11.102;2022-07-10T09:23:33;1.67;;;1.52;;
31382;SDS011;18014;49.228;11.102;2022-07-10T09:25:34;1.88;;;1.50;;
31382;SDS011;18014;49.228;11.102;2022-07-10T09:27:35;4.28;;;1.92;;
31382;SDS011;18014;49.228;11.102;2022-07-10T09:29:52;2.08;;;1.88;;
31382;SDS011;18014;49.228;11.102;2022-07-10T09:31:58;1.45;;;1.35;;
31382;SDS011;18014;49.228;11.102;2022-07-10T09:34:00;1.30;;;1.20;;
31382;SDS011;18014;49.228;11.102;2022-07-10T09:36:09;1.67;;;1.45;;
31382;SDS011;18014;49.228;11.102;2022-07-10T09:38:11;1.40;;;1.30;;
31382;SDS011;18014;49.228;11.102;2022-07-10T09:40:12;1.35;;;1.25;;
31382;SDS011;18014;49.228;11.102;2022-07-10T09:42:23;1.60;;;1.50;;
31382;SDS011;18014;49.228;11.102;2022-07-10T09:44:26;1.40;;;1.30;;
31382;SDS011;18014;49.228;11.102;2022-07-10T09:46:36;1.50;;;1.40;;
31382;SDS011;18014;49.228;11.102;2022-07-10T09:48:41;1.73;;;1.38;;
31382;SDS011;18014;49.228;11.102;2022-07-10T09:50:42;1.40;;;1.20;;
31382;SDS011;18014;49.228;11.102;2022-07-10T09:52:43;1.45;;;1.30;;
31382;SDS011;18014;49.228;11.102;2022-07-10T09:54:45;1.00;;;1.00;;
31382;SDS011;18014;49.228;11.102;2022-07-10T09:56:47;1.20;;;1.10;;
31382;SDS011;18014;49.228;11.102;2022-07-10T09:58:52;1.50;;;1.23;;
31382;SDS011;18014;49.228;11.102;2022-07-10T10:00:59;1.40;;;1.30;;
31382;SDS011;18014;49.228;11.102;2022-07-10T10:03:02;1.33;;;1.23;;
31382;SDS011;18014;49.228;11.102;2022-07-10T10:05:08;1.05;;;1.05;;
31382;SDS011;18014;49.228;11.102;2022-07-10T10:07:09;2.38;;;1.30;;
31382;SDS011;18014;49.228;11.102;2022-07-10T10:09:26;1.40;;;1.30;;
31382;SDS011;18014;49.228;11.102;2022-07-10T10:11:36;2.10;;;1.30;;
31382;SDS011;18014;49.228;11.102;2022-07-10T10:13:37;1.20;;;1.10;;
31382;SDS011;18014;49.228;11.102;2022-07-10T10:15:38;1.40;;;1.30;;
31382;SDS011;18014;49.228;11.102;2022-07-10T10:17:40;1.58;;;1.35;;
31382;SDS011;18014;49.228;11.102;2022-07-10T10:19:41;1.75;;;1.25;;
31382;SDS011;18014;49.228;11.102;2022-07-10T10:22:02;1.20;;;1.10;;
31382;SDS011;18014;49.228;11.102;2022-07-10T10:24:05;1.48;;;1.20;;
31382;SDS011;18014;49.228;11.102;2022-07-10T10:26:06;1.67;;;1.23;;
31382;SDS011;18014;49.228;11.102;2022-07-10T10:28:08;0.93;;;0.93;;
31382;SDS011;18014;49.228;11.102;2022-07-10T10:30:11;2.50;;;1.40;;
31382;SDS011;18014;49.228;11.102;2022-07-10T10:32:12;2.53;;;1.35;;
31382;SDS011;18014;49.228;11.102;2022-07-10T10:34:13;1.42;;;1.33;;
31382;SDS011;18014;49.228;11.102;2022-07-10T10:43:38;1.60;;;1.27;;
31382;SDS011;18014;49.228;11.102;2022-07-10T10:45:40;1.30;;;1.20;;
31382;SDS011;18014;49.228;11.102;2022-07-10T10:47:56;2.05;;;1.23;;
31382;SDS011;18014;49.228;11.102;2022-07-10T10:50:10;2.20;;;1.17;;
31382;SDS011;18014;49.228;11.102;2022-07-10T10:52:31;1.33;;;1.00;;
31382;SDS011;18014;49.228;11.102;2022-07-10T10:57:11;1.98;;;1.48;;
31382;SDS011;18014;49.228;11.102;2022-07-10T11:01:46;2.10;;;1.17;;
31382;SDS011;18014;49.228;11.102;2022-07-10T11:04:13;1.60;;;1.33;;
31382;SDS011;18014;49.228;11.102;2022-07-10T11:06:15;1.52;;;1.30;;
31382;SDS011;18014;49.228;11.102;2022-07-10T11:08:39;2.35;;;1.50;;
31382;SDS011;18014;49.228;11.102;2022-07-10T11:10:44;1.80;;;1.40;;
31382;SDS011;18014;49.228;11.102;2022-07-10T11:15:01;2.28;;;1.33;;
31382;SDS011;18014;49.228;11.102;2022-07-10T11:17:06;1.27;;;1.10;;
31382;SDS011;18014;49.228;11.102;2022-07-10T11:19:08;2.47;;;1.20;;
31382;SDS011;18014;49.228;11.102;2022-07-10T11:21:09;2.15;;;1.20;;
31382;SDS011;18014;49.228;11.102;2022-07-10T11:25:53;1.30;;;1.13;;
31382;SDS011;18014;49.228;11.102;2022-07-10T11:28:11;1.58;;;1.08;;
31382;SDS011;18014;49.228;11.102;2022-07-10T11:30:12;1.50;;;1.20;;
31382;SDS011;18014;49.228;11.102;2022-07-10T11:32:16;1.20;;;1.10;;
31382;SDS011;18014;49.228;11.102;2022-07-10T11:34:17;1.20;;;1.00;;
31382;SDS011;18014;49.228;11.102;2022-07-10T11:36:22;2.33;;;1.23;;
31382;SDS011;18014;49.228;11.102;2022-07-10T11:38:26;1.08;;;0.93;;
31382;SDS011;18014;49.228;11.102;2022-07-10T11:40:27;1.63;;;1.02;;
31382;SDS011;18014;49.228;11.102;2022-07-10T11:42:32;1.50;;;0.88;;
31382;SDS011;18014;49.228;11.102;2022-07-10T11:44:51;2.23;;;1.00;;
31382;SDS011;18014;49.228;11.102;2022-07-10T11:46:52;1.52;;;1.10;;
31382;SDS011;18014;49.228;11.102;2022-07-10T11:48:55;1.00;;;0.90;;
31382;SDS011;18014;49.228;11.102;2022-07-10T11:50:57;1.52;;;1.00;;
31382;SDS011;18014;49.228;11.102;2022-07-10T11:52:58;0.65;;;0.63;;
31382;SDS011;18014;49.228;11.102;2022-07-10T11:55:12;1.65;;;1.00;;
31382;SDS011;18014;49.228;11.102;2022-07-10T11:57:15;1.63;;;0.90;;
31382;SDS011;18014;49.228;11.102;2022-07-10T11:59:16;2.03;;;1.10;;
31382;SDS011;18014;49.228;11.102;2022-07-10T12:01:18;1.63;;;0.90;;
31382;SDS011;18014;49.228;11.102;2022-07-10T12:03:19;1.45;;;0.90;;
31382;SDS011;18014;49.228;11.102;2022-07-10T12:05:31;1.10;;;1.00;;
31382;SDS011;18014;49.228;11.102;2022-07-10T12:07:36;1.55;;;1.00;;
31382;SDS011;18014;49.228;11.102;2022-07-10T12:09:38;1.38;;;0.80;;
31382;SDS011;18014;49.228;11.102;2022-07-10T12:11:40;1.20;;;1.00;;
31382;SDS011;18014;49.228;11.102;2022-07-10T12:13:42;1.23;;;0.88;;
31382;SDS011;18014;49.228;11.102;2022-07-10T12:15:47;0.98;;;0.80;;
31382;SDS011;18014;49.228;11.102;2022-07-10T12:17:51;1.30;;;0.98;;
31382;SDS011;18014;49.228;11.102;2022-07-10T12:19:52;1.63;;;1.10;;
31382;SDS011;18014;49.228;11.102;2022-07-10T12:21:56;1.20;;;0.93;;
31382;SDS011;18014;49.228;11.102;2022-07-10T12:23:58;1.98;;;0.95;;
31382;SDS011;18014;49.228;11.102;2022-07-10T12:26:02;1.05;;;0.80;;
31382;SDS011;18014;49.228;11.102;2022-07-10T12:28:03;1.00;;;0.77;;